createdAt,value
2018-03-28T00:01:26.309Z,1.10
2018-03-28T00:03:53.845Z,1.10
2018-03-28T00:06:22.126Z,1.30
2018-03-28T00:08:50.421Z,1.30
2018-03-28T00:11:17.959Z,1.20
2018-03-28T00:13:45.498Z,1.30
2018-03-28T00:16:13.027Z,1.30
2018-03-28T00:18:40.575Z,1.30
2018-03-28T00:21:08.097Z,1.30
2018-03-28T00:23:35.613Z,1.30
2018-03-28T00:26:03.154Z,1.20
2018-03-28T00:28:30.688Z,1.10
2018-03-28T00:30:58.219Z,1.10
2018-03-28T00:33:26.515Z,1.00
2018-03-28T00:35:54.058Z,1.00
2018-03-28T00:38:21.571Z,1.10
2018-03-28T00:40:49.113Z,1.10
2018-03-28T00:43:16.652Z,1.10
2018-03-28T00:45:44.217Z,1.10
2018-03-28T00:48:11.739Z,1.20
2018-03-28T00:50:40.067Z,1.20
2018-03-28T00:53:07.581Z,1.20
2018-03-28T00:55:35.115Z,1.10
2018-03-28T00:58:02.669Z,1.20
2018-03-28T01:00:30.182Z,1.10
2018-03-28T01:02:57.744Z,1.10
2018-03-28T01:05:25.260Z,1.20
2018-03-28T01:07:53.570Z,1.20
2018-03-28T01:10:21.099Z,1.20
2018-03-28T01:12:48.639Z,1.30
2018-03-28T01:15:16.935Z,1.30
2018-03-28T01:17:44.465Z,1.30
2018-03-28T01:20:11.986Z,1.30
2018-03-28T01:22:39.534Z,1.40
2018-03-28T01:25:07.057Z,1.40
2018-03-28T01:27:35.335Z,1.40
2018-03-28T01:30:03.639Z,1.40
2018-03-28T01:32:31.163Z,1.40
2018-03-28T01:34:59.463Z,1.50
2018-03-28T01:37:26.978Z,1.50
2018-03-28T01:39:54.515Z,1.50
2018-03-28T01:42:22.039Z,1.50
2018-03-28T01:44:49.593Z,1.50
2018-03-28T01:47:17.104Z,1.50
2018-03-28T01:49:44.634Z,1.50
2018-03-28T01:52:12.163Z,1.60
2018-03-28T01:54:39.689Z,1.60
2018-03-28T01:57:07.980Z,1.60
2018-03-28T01:59:35.515Z,1.60
2018-03-28T02:02:03.059Z,1.60
2018-03-28T02:04:30.625Z,1.60
2018-03-28T02:06:58.210Z,1.60
2018-03-28T02:09:25.727Z,1.60
2018-03-28T02:11:53.266Z,1.60
2018-03-28T02:14:20.815Z,1.70
2018-03-28T02:16:48.327Z,1.70
2018-03-28T02:19:15.876Z,1.70
2018-03-28T02:21:44.206Z,1.70
2018-03-28T02:24:11.748Z,1.70
2018-03-28T02:26:39.270Z,1.70
2018-03-28T02:29:06.820Z,1.70
2018-03-28T02:31:34.341Z,1.70
2018-03-28T02:34:01.895Z,1.70
2018-03-28T02:36:29.424Z,1.70
2018-03-28T02:38:56.971Z,1.70
2018-03-28T02:41:24.477Z,1.80
2018-03-28T02:43:52.020Z,1.80
2018-03-28T02:46:19.546Z,1.80
2018-03-28T02:48:47.093Z,1.80
2018-03-28T02:51:14.630Z,1.80
2018-03-28T02:53:42.162Z,1.80
2018-03-28T02:56:09.707Z,1.80
2018-03-28T02:58:37.219Z,1.80
2018-03-28T03:01:04.767Z,1.70
2018-03-28T03:03:33.057Z,1.80
2018-03-28T03:06:00.628Z,1.80
2018-03-28T03:08:28.146Z,1.80
2018-03-28T03:10:55.731Z,1.90
2018-03-28T03:13:23.245Z,1.90
2018-03-28T03:15:50.775Z,2.00
2018-03-28T03:18:18.289Z,2.00
2018-03-28T03:20:45.814Z,2.00
2018-03-28T03:23:13.355Z,2.00
2018-03-28T03:25:41.646Z,2.00
2018-03-28T03:28:09.187Z,2.00
2018-03-28T03:30:36.719Z,2.10
2018-03-28T03:33:04.269Z,2.10
2018-03-28T03:35:31.798Z,2.00
2018-03-28T03:37:59.344Z,2.10
2018-03-28T03:40:26.869Z,2.10
2018-03-28T03:42:54.406Z,2.10
2018-03-28T03:45:21.943Z,2.10
2018-03-28T03:47:49.492Z,2.10
2018-03-28T03:50:17.794Z,2.10
2018-03-28T03:52:45.321Z,2.00
2018-03-28T03:55:12.853Z,2.10
2018-03-28T03:57:40.369Z,2.10
2018-03-28T04:00:07.930Z,2.10
2018-03-28T04:02:35.449Z,2.00
2018-03-28T04:05:02.987Z,2.00
2018-03-28T04:07:30.515Z,2.10
2018-03-28T04:09:58.057Z,2.00
2018-03-28T04:12:25.586Z,2.10
2018-03-28T04:14:53.894Z,2.10
2018-03-28T04:17:21.426Z,2.10
2018-03-28T04:19:49.724Z,2.20
2018-03-28T04:22:17.949Z,2.10
2018-03-28T04:24:45.472Z,2.10
2018-03-28T04:27:13.017Z,2.10
2018-03-28T04:29:40.537Z,2.10
2018-03-28T04:32:08.132Z,2.10
2018-03-28T04:34:35.660Z,2.10
2018-03-28T04:37:03.219Z,2.10
2018-03-28T04:39:31.505Z,2.10
2018-03-28T04:41:59.049Z,2.10
2018-03-28T04:44:27.347Z,2.10
2018-03-28T04:46:54.903Z,2.10
2018-03-28T04:49:22.445Z,2.10
2018-03-28T04:51:49.960Z,2.10
2018-03-28T04:54:17.803Z,2.10
2018-03-28T04:56:45.365Z,2.00
2018-03-28T04:59:12.935Z,2.00
2018-03-28T05:01:40.457Z,2.00
2018-03-28T05:04:08.052Z,2.00
2018-03-28T05:06:35.551Z,1.90
2018-03-28T05:09:03.866Z,1.90
2018-03-28T05:11:32.282Z,1.90
2018-03-28T05:13:59.835Z,1.90
2018-03-28T05:16:27.348Z,1.90
2018-03-28T05:18:54.919Z,1.90
2018-03-28T05:21:22.469Z,1.90
2018-03-28T05:23:49.999Z,1.90
2018-03-28T05:26:17.541Z,1.90
2018-03-28T05:28:45.058Z,1.90
2018-03-28T05:31:12.607Z,1.80
2018-03-28T05:33:40.125Z,1.80
2018-03-28T05:36:08.444Z,1.80
2018-03-28T05:38:35.973Z,1.70
2018-03-28T05:41:03.514Z,1.70
2018-03-28T05:43:31.033Z,1.60
2018-03-28T05:45:58.583Z,1.50
2018-03-28T05:48:26.113Z,1.40
2018-03-28T05:50:53.654Z,1.40
2018-03-28T05:53:21.942Z,1.30
2018-03-28T05:55:49.524Z,1.20
2018-03-28T05:58:17.024Z,1.20
2018-03-28T06:00:44.573Z,1.20
2018-03-28T06:03:12.832Z,1.20
2018-03-28T06:05:40.367Z,1.20
2018-03-28T06:08:07.899Z,1.10
2018-03-28T06:10:35.441Z,1.10
2018-03-28T06:13:03.727Z,1.10
2018-03-28T06:15:31.270Z,1.10
2018-03-28T06:17:59.548Z,1.10
2018-03-28T06:20:27.861Z,1.10
2018-03-28T06:22:56.192Z,1.10
2018-03-28T06:25:24.511Z,1.10
2018-03-28T06:27:52.035Z,1.10
2018-03-28T06:30:19.590Z,1.00
2018-03-28T06:32:47.868Z,1.10
2018-03-28T06:35:15.417Z,1.10
2018-03-28T06:37:42.933Z,1.10
2018-03-28T06:40:10.476Z,1.10
2018-03-28T06:42:37.993Z,1.10
2018-03-28T06:45:05.524Z,1.10
2018-03-28T06:47:33.033Z,1.10
2018-03-28T06:50:00.585Z,1.10
2018-03-28T06:52:28.110Z,1.10
2018-03-28T06:54:55.628Z,1.10
2018-03-28T06:57:23.158Z,1.10
2018-03-28T06:59:50.682Z,1.10
2018-03-28T07:02:18.264Z,1.10
2018-03-28T07:04:45.753Z,1.20
2018-03-28T07:07:13.295Z,1.20
2018-03-28T07:09:40.824Z,1.10
2018-03-28T07:12:09.122Z,1.10
2018-03-28T07:14:36.650Z,1.10
2018-03-28T07:17:04.960Z,1.30
2018-03-28T07:19:32.505Z,1.30
2018-03-28T07:22:00.063Z,1.20
2018-03-28T07:24:27.590Z,1.20
2018-03-28T07:26:55.121Z,1.20
2018-03-28T07:29:22.645Z,1.30
2018-03-28T07:31:50.193Z,1.30
2018-03-28T07:34:17.762Z,1.30
2018-03-28T07:36:45.293Z,1.30
2018-03-28T07:39:13.590Z,1.40
2018-03-28T07:41:41.130Z,1.40
2018-03-28T07:44:09.422Z,1.40
2018-03-28T07:46:36.964Z,1.40
2018-03-28T07:49:04.518Z,1.40
2018-03-28T07:51:32.832Z,1.40
2018-03-28T07:54:00.366Z,1.40
2018-03-28T07:56:27.910Z,1.40
2018-03-28T07:58:55.421Z,1.40
2018-03-28T08:01:22.957Z,1.50
2018-03-28T08:03:50.471Z,1.40
2018-03-28T08:06:18.004Z,1.40
2018-03-28T08:08:45.516Z,1.50
2018-03-28T08:11:13.049Z,1.50
2018-03-28T08:13:41.340Z,1.50
2018-03-28T08:16:08.888Z,1.50
2018-03-28T08:18:37.172Z,1.50
2018-03-28T08:21:04.701Z,1.50
2018-03-28T08:23:32.223Z,1.50
2018-03-28T08:25:59.764Z,1.50
2018-03-28T08:28:27.281Z,1.60
2018-03-28T08:30:55.580Z,1.60
2018-03-28T08:33:23.103Z,1.60
2018-03-28T08:35:50.682Z,1.60
2018-03-28T08:38:18.993Z,1.60
2018-03-28T08:40:46.517Z,1.60
2018-03-28T08:43:14.823Z,1.60
2018-03-28T08:45:42.341Z,1.60
2018-03-28T08:48:10.646Z,1.60
2018-03-28T08:50:38.186Z,1.60
2018-03-28T08:53:05.724Z,1.60
2018-03-28T08:55:33.244Z,1.60
2018-03-28T08:58:01.551Z,1.50
2018-03-28T09:00:29.095Z,1.50
2018-03-28T09:02:56.648Z,1.50
2018-03-28T09:05:24.188Z,1.50
2018-03-28T09:07:51.716Z,1.60
2018-03-28T09:10:19.243Z,1.60
2018-03-28T09:12:47.559Z,1.60
2018-03-28T09:15:15.072Z,1.60
2018-03-28T09:17:42.619Z,1.60
2018-03-28T09:20:10.145Z,1.70
2018-03-28T09:22:37.674Z,1.70
2018-03-28T09:25:05.224Z,1.70
2018-03-28T09:27:32.767Z,1.70
2018-03-28T09:30:01.060Z,1.70
2018-03-28T09:32:28.592Z,1.70
2018-03-28T09:34:56.110Z,1.70
2018-03-28T09:37:23.676Z,1.80
2018-03-28T09:39:51.188Z,1.80
2018-03-28T09:42:18.721Z,1.80
2018-03-28T09:44:46.242Z,1.90
2018-03-28T09:47:13.768Z,1.90
2018-03-28T09:49:41.303Z,1.80
2018-03-28T09:52:09.601Z,1.90
2018-03-28T09:54:37.137Z,1.90
2018-03-28T09:57:05.438Z,2.00
2018-03-28T09:59:32.948Z,1.90
2018-03-28T10:02:00.487Z,2.00
2018-03-28T10:07:33.865Z,2.00
2018-03-28T10:10:01.391Z,2.00
2018-03-28T10:12:28.936Z,2.00
2018-03-28T10:14:56.452Z,2.00
2018-03-28T10:17:24.025Z,2.00
2018-03-28T10:19:51.553Z,2.00
2018-03-28T10:22:19.099Z,2.00
2018-03-28T10:24:46.642Z,2.00
2018-03-28T10:27:14.181Z,1.90
2018-03-28T10:29:41.699Z,1.90
2018-03-28T10:32:09.229Z,1.90
2018-03-28T10:34:36.740Z,1.80
2018-03-28T10:37:04.262Z,1.80
2018-03-28T10:39:31.792Z,1.80
2018-03-28T10:41:59.314Z,1.80
2018-03-28T10:44:26.864Z,1.80
2018-03-28T10:46:54.397Z,1.70
2018-03-28T10:49:21.946Z,1.80
2018-03-28T10:51:49.474Z,1.80
2018-03-28T10:54:17.780Z,1.90
2018-03-28T10:56:45.291Z,1.80
2018-03-28T10:59:12.825Z,2.00
2018-03-28T11:01:40.354Z,2.00
2018-03-28T11:04:07.894Z,1.90
2018-03-28T11:06:35.427Z,1.90
2018-03-28T11:09:02.975Z,1.90
2018-03-28T11:11:30.501Z,1.90
2018-03-28T11:13:58.034Z,2.00
2018-03-28T11:16:25.544Z,1.90
2018-03-28T11:18:54.593Z,2.00
2018-03-28T11:21:22.150Z,2.00
2018-03-28T11:23:49.680Z,2.00
2018-03-28T11:26:17.966Z,2.00
2018-03-28T11:28:45.516Z,2.00
2018-03-28T11:31:13.046Z,2.00
2018-03-28T11:33:40.586Z,2.00
2018-03-28T11:36:08.144Z,2.10
2018-03-28T11:38:35.676Z,2.00
2018-03-28T11:41:03.198Z,2.00
2018-03-28T11:43:30.760Z,2.10
2018-03-28T11:45:58.292Z,2.20
2018-03-28T11:48:25.820Z,2.20
2018-03-28T11:50:53.333Z,2.10
2018-03-28T11:53:20.864Z,2.20
2018-03-28T11:55:48.381Z,2.30
2018-03-28T11:58:15.909Z,2.20
2018-03-28T12:00:43.459Z,2.30
2018-03-28T12:03:10.993Z,2.40
2018-03-28T12:05:38.507Z,2.50
2018-03-28T12:08:06.815Z,2.50
2018-03-28T12:10:34.332Z,2.50
2018-03-28T12:13:01.896Z,2.50
2018-03-28T12:15:29.424Z,2.50
2018-03-28T12:17:56.938Z,2.40
2018-03-28T12:20:24.519Z,2.50
2018-03-28T12:22:52.810Z,2.50
2018-03-28T12:25:21.127Z,2.40
2018-03-28T12:27:48.651Z,2.50
2018-03-28T12:30:16.180Z,2.40
2018-03-28T12:32:43.705Z,2.40
2018-03-28T12:35:11.239Z,2.50
2018-03-28T12:37:38.766Z,2.50
2018-03-28T12:40:07.077Z,2.60
2018-03-28T12:42:34.595Z,2.50
2018-03-28T12:45:02.899Z,2.50
2018-03-28T12:47:30.422Z,2.50
2018-03-28T12:49:58.742Z,2.40
2018-03-28T12:52:26.281Z,2.40
2018-03-28T12:54:53.829Z,2.40
2018-03-28T12:57:21.382Z,2.40
2018-03-28T12:59:48.936Z,2.40
2018-03-28T13:02:17.242Z,2.30
2018-03-28T13:04:44.786Z,2.30
2018-03-28T13:07:12.317Z,2.30
2018-03-28T13:09:39.849Z,2.40
2018-03-28T13:12:07.364Z,2.40
2018-03-28T13:14:35.797Z,2.40
2018-03-28T13:17:03.319Z,2.40
2018-03-28T13:19:30.875Z,2.40
2018-03-28T13:21:58.392Z,2.40
2018-03-28T13:24:27.702Z,2.40
2018-03-28T13:26:55.248Z,2.40
2018-03-28T13:29:23.539Z,2.50
2018-03-28T13:31:51.083Z,2.40
2018-03-28T13:34:19.383Z,2.60
2018-03-28T13:36:46.934Z,2.60
2018-03-28T13:39:14.458Z,2.60
2018-03-28T13:41:42.029Z,2.50
2018-03-28T13:44:09.550Z,2.50
2018-03-28T13:46:37.138Z,2.40
2018-03-28T13:49:04.673Z,2.40
2018-03-28T13:51:32.198Z,2.40
2018-03-28T13:53:59.739Z,2.40
2018-03-28T13:56:27.252Z,2.40
2018-03-28T13:58:54.785Z,2.40
2018-03-28T14:01:22.332Z,2.40
2018-03-28T14:03:49.881Z,2.40
2018-03-28T14:06:17.392Z,2.30
2018-03-28T14:08:44.923Z,2.20
2018-03-28T14:11:12.432Z,2.20
2018-03-28T14:13:39.963Z,2.10
2018-03-28T14:16:08.263Z,2.20
2018-03-28T14:18:35.812Z,2.20
2018-03-28T14:21:04.098Z,2.10
2018-03-28T14:23:31.620Z,2.10
2018-03-28T14:25:59.158Z,2.10
2018-03-28T14:28:26.678Z,2.10
2018-03-28T14:30:54.208Z,2.10
2018-03-28T14:33:21.730Z,2.10
2018-03-28T14:35:49.275Z,2.10
2018-03-28T14:38:16.798Z,2.10
2018-03-28T14:40:44.339Z,2.20
2018-03-28T14:43:11.857Z,2.20
2018-03-28T14:45:39.384Z,2.20
2018-03-28T14:48:06.901Z,2.20
2018-03-28T14:50:34.482Z,2.20
2018-03-28T14:53:01.998Z,2.20
2018-03-28T14:55:29.514Z,2.30
2018-03-28T14:57:57.041Z,2.30
2018-03-28T15:00:24.561Z,2.20
2018-03-28T15:02:52.099Z,2.30
2018-03-28T15:05:19.627Z,2.30
2018-03-28T15:07:47.165Z,2.30
2018-03-28T15:10:14.676Z,2.20
2018-03-28T15:12:42.270Z,2.20
2018-03-28T15:15:09.791Z,2.20
2018-03-28T15:17:37.327Z,2.20
2018-03-28T15:20:04.854Z,2.20
2018-03-28T15:22:32.385Z,2.20
2018-03-28T15:24:59.896Z,2.20
2018-03-28T15:27:27.443Z,2.20
2018-03-28T15:29:54.989Z,2.20
2018-03-28T15:32:22.498Z,2.30
2018-03-28T15:34:50.054Z,2.30
2018-03-28T15:37:17.582Z,2.20
2018-03-28T15:39:45.128Z,2.20
2018-03-28T15:42:12.711Z,2.30
2018-03-28T15:44:40.257Z,2.30
2018-03-28T15:47:07.786Z,2.30
2018-03-28T15:49:35.328Z,2.30
2018-03-28T15:52:02.840Z,2.30
2018-03-28T15:54:30.376Z,2.20
2018-03-28T15:56:57.903Z,2.20
2018-03-28T15:59:25.466Z,2.20
2018-03-28T16:01:53.761Z,2.20
2018-03-28T16:04:21.294Z,2.20
2018-03-28T16:06:48.835Z,2.20
2018-03-28T16:09:16.360Z,2.20
2018-03-28T16:11:43.902Z,2.20
2018-03-28T16:14:12.149Z,2.20
2018-03-28T16:16:39.691Z,2.20
2018-03-28T16:19:07.221Z,2.20
2018-03-28T16:21:34.767Z,2.10
2018-03-28T16:24:02.318Z,2.10
2018-03-28T16:26:29.860Z,2.10
2018-03-28T16:28:57.381Z,2.10
2018-03-28T16:31:24.913Z,2.10
2018-03-28T16:33:52.431Z,2.10
2018-03-28T16:36:20.021Z,2.10
2018-03-28T16:38:47.577Z,2.10
2018-03-28T16:41:15.103Z,2.10
2018-03-28T16:43:42.634Z,2.00
2018-03-28T16:46:10.190Z,2.00
2018-03-28T16:48:37.714Z,2.10
2018-03-28T16:51:05.236Z,2.10
2018-03-28T16:53:32.795Z,2.10
2018-03-28T16:56:00.326Z,2.10
2018-03-28T16:58:28.635Z,2.00
2018-03-28T17:00:57.101Z,2.00
2018-03-28T17:03:24.642Z,2.00
2018-03-28T17:05:52.156Z,2.00
2018-03-28T17:08:19.711Z,2.00
2018-03-28T17:10:47.242Z,2.00
2018-03-28T17:13:14.766Z,2.00
2018-03-28T17:15:42.302Z,2.00
2018-03-28T17:18:09.989Z,2.00
2018-03-28T17:20:37.565Z,2.00
2018-03-28T17:23:05.112Z,2.00
2018-03-28T17:25:33.401Z,2.00
2018-03-28T17:28:00.962Z,2.00
2018-03-28T17:30:28.824Z,2.00
2018-03-28T17:32:56.360Z,2.00
2018-03-28T17:35:23.897Z,2.00
2018-03-28T17:37:51.416Z,1.90
2018-03-28T17:40:18.947Z,2.00
2018-03-28T17:42:47.180Z,2.00
2018-03-28T17:45:14.725Z,2.00
2018-03-28T17:47:42.259Z,2.00
2018-03-28T17:50:09.785Z,2.00
2018-03-28T17:52:37.322Z,2.00
2018-03-28T17:55:04.856Z,2.10
2018-03-28T17:57:32.394Z,2.00
2018-03-28T17:59:59.929Z,2.00
2018-03-28T18:02:27.475Z,2.00
2018-03-28T18:04:55.754Z,2.10
2018-03-28T18:07:23.299Z,2.00
2018-03-28T18:09:51.587Z,2.10
2018-03-28T18:12:19.135Z,2.00
2018-03-28T18:14:47.420Z,2.10
2018-03-28T18:17:14.932Z,2.00
2018-03-28T18:19:42.469Z,2.10
2018-03-28T18:22:09.989Z,2.00
2018-03-28T18:24:37.517Z,2.10
2018-03-28T18:27:05.046Z,2.10
2018-03-28T18:29:32.595Z,2.00
2018-03-28T18:32:00.118Z,2.10
2018-03-28T18:34:27.685Z,2.10
2018-03-28T18:36:55.214Z,2.00
2018-03-28T18:39:23.517Z,2.10
2018-03-28T18:41:51.043Z,2.10
2018-03-28T18:44:18.591Z,2.10
2018-03-28T18:46:46.122Z,2.10
2018-03-28T18:49:13.666Z,2.10
2018-03-28T18:51:41.955Z,2.10
2018-03-28T18:54:09.491Z,2.10
2018-03-28T18:56:37.035Z,2.10
2018-03-28T18:59:04.584Z,2.10
2018-03-28T19:01:32.123Z,2.20
2018-03-28T19:03:59.640Z,2.20
2018-03-28T19:06:27.175Z,2.20
2018-03-28T19:08:54.699Z,2.20
2018-03-28T19:11:22.251Z,2.20
2018-03-28T19:13:49.798Z,2.20
2018-03-28T19:16:17.342Z,2.20
2018-03-28T19:18:44.861Z,2.20
2018-03-28T19:21:12.407Z,2.20
2018-03-28T19:23:39.920Z,2.20
2018-03-28T19:26:07.452Z,2.30
2018-03-28T19:28:35.075Z,2.20
2018-03-28T19:31:02.670Z,2.30
2018-03-28T19:33:30.165Z,2.30
2018-03-28T19:35:57.703Z,2.20
2018-03-28T19:38:25.260Z,2.30
2018-03-28T19:40:52.793Z,2.20
2018-03-28T19:43:20.362Z,2.30
2018-03-28T19:45:47.903Z,2.30
2018-03-28T19:48:15.454Z,2.30
2018-03-28T19:50:42.998Z,2.30
2018-03-28T19:53:10.532Z,2.30
2018-03-28T19:55:38.060Z,2.30
2018-03-28T19:58:05.636Z,2.30
2018-03-28T20:00:33.169Z,2.30
2018-03-28T20:03:00.723Z,2.30
2018-03-28T20:05:28.248Z,2.30
2018-03-28T20:07:55.800Z,2.30
2018-03-28T20:10:23.338Z,2.30
2018-03-28T20:12:51.643Z,2.30
2018-03-28T20:15:19.190Z,2.30
2018-03-28T20:17:46.728Z,2.40
2018-03-28T20:20:15.048Z,2.30
2018-03-28T20:22:42.569Z,2.20
2018-03-28T20:25:10.885Z,2.20
2018-03-28T20:27:38.418Z,2.20
2018-03-28T20:30:05.952Z,2.30
2018-03-28T20:32:33.508Z,2.30
2018-03-28T20:35:01.810Z,2.30
2018-03-28T20:37:29.324Z,2.30
2018-03-28T20:39:56.878Z,2.30
2018-03-28T20:42:24.408Z,2.30
2018-03-28T20:44:52.791Z,2.30
2018-03-28T20:47:20.353Z,2.30
2018-03-28T20:49:47.908Z,2.20
2018-03-28T20:52:15.464Z,2.30
2018-03-28T20:54:43.073Z,2.20
2018-03-28T20:57:10.617Z,2.20
2018-03-28T20:59:38.165Z,2.30
2018-03-28T21:02:06.397Z,2.20
2018-03-28T21:04:33.909Z,2.30
2018-03-28T21:07:02.238Z,2.30
2018-03-28T21:09:29.761Z,2.20
2018-03-28T21:11:58.070Z,2.30
2018-03-28T21:14:25.603Z,2.30
2018-03-28T21:16:53.143Z,2.30
2018-03-28T21:19:20.674Z,2.30
2018-03-28T21:21:48.255Z,2.30
2018-03-28T21:24:16.565Z,2.30
2018-03-28T21:26:44.130Z,2.20
2018-03-28T21:29:11.651Z,2.30
2018-03-28T21:31:39.168Z,2.30
2018-03-28T21:34:07.931Z,2.30
2018-03-28T21:36:36.226Z,2.40
2018-03-28T21:39:03.774Z,2.30
2018-03-28T21:41:31.311Z,2.30
2018-03-28T21:43:58.886Z,2.30
2018-03-28T21:46:26.414Z,2.40
2018-03-28T21:48:53.945Z,2.40
2018-03-28T21:51:21.465Z,2.40
2018-03-28T21:53:49.538Z,2.40
2018-03-28T21:56:17.082Z,2.30
2018-03-28T21:58:44.618Z,2.40
2018-03-28T22:01:12.169Z,2.40
2018-03-28T22:03:39.718Z,2.40
2018-03-28T22:06:07.262Z,2.40
2018-03-28T22:08:35.545Z,2.40
2018-03-28T22:11:03.849Z,2.50
2018-03-28T22:13:31.387Z,2.40
2018-03-28T22:15:58.975Z,2.50
2018-03-28T22:18:26.534Z,2.50
2018-03-28T22:20:54.068Z,2.50
2018-03-28T22:23:21.598Z,2.50
2018-03-28T22:25:49.142Z,2.60
2018-03-28T22:28:16.662Z,2.50
2018-03-28T22:30:44.213Z,2.50
2018-03-28T22:33:11.741Z,2.50
2018-03-28T22:35:39.252Z,2.60
2018-03-28T22:38:06.794Z,2.60
2018-03-28T22:40:34.308Z,2.60
2018-03-28T22:43:01.848Z,2.60
2018-03-28T22:45:29.372Z,2.60
2018-03-28T22:47:56.910Z,2.70
2018-03-28T22:50:24.435Z,2.70
2018-03-28T22:52:51.981Z,2.70
2018-03-28T22:55:19.492Z,2.70
2018-03-28T22:57:47.794Z,2.70
2018-03-28T23:00:15.325Z,2.70
2018-03-28T23:02:42.864Z,2.70
2018-03-28T23:05:10.391Z,2.70
2018-03-28T23:07:37.929Z,2.80
2018-03-28T23:10:05.441Z,2.80
2018-03-28T23:12:32.966Z,2.80
2018-03-28T23:15:01.274Z,2.80
2018-03-28T23:17:28.807Z,2.80
2018-03-28T23:19:56.360Z,2.80
2018-03-28T23:22:38.591Z,2.80
2018-03-28T23:25:06.169Z,2.90
2018-03-28T23:27:33.705Z,2.80
2018-03-28T23:30:01.244Z,2.90
2018-03-28T23:32:28.766Z,2.90
2018-03-28T23:34:56.327Z,2.90
2018-03-28T23:37:23.846Z,2.90
2018-03-28T23:39:51.356Z,2.90
2018-03-28T23:42:19.680Z,2.90
2018-03-28T23:44:47.200Z,2.90
2018-03-28T23:47:14.737Z,2.90
2018-03-28T23:49:42.257Z,2.90
2018-03-28T23:52:09.809Z,2.90
2018-03-28T23:54:37.336Z,3.00
2018-03-28T23:57:05.641Z,3.00
2018-03-28T23:59:33.166Z,3.00
